Aviation Digital Data Service (ADDS)

Output produced by TAFs form (1621 UTC 17 April 2014)
found at http://aviationweather.gov/adds/tafs/
 
KTCS 171128Z 1712/1812 01011KT P6SM SKC 
     FM171500 05007KT P6SM SKC 
     FM172000 16012KT P6SM SKC 
     FM180500 27005KT P6SM SKC